Darstellungsparameter: Aktuell verwendete Einstellungen:
Skalierung der Graphiken ... ?
xyx+y,   Skalierungsfaktor:      Skalierung: Modus: x, Faktor: 1
Darstellungszeitraum ... ?
Vom - - bis: - -   Zeitraum: 16.05.2019 - 15.08.2019
Min/Max/Avg-Anzeige ... ?
Zeige MMA aktuell
Zeige MMA Monat
Zeige MMA alles
Zeige --A aktuell
Zeige --A Monat
Zeige --A alles
Keine MMA-Anzeige
MMA:
Minimum Maximum Average (ber die Originaldaten)
MMA-Basis: 16.05.2019 - 15.08.2019
Quicknavigation für Darstellung... ?
Tage:      1T, 2T, 3T, 5T -1T -2T -3T -5T +1T +2T +3T +5T
Wochen: 1W, 2W, 3W -1W -2W -3W +1W +2W +3W
Monate: 1M, 3M, 6M -1M -3M -6M +1M +3M +6M
Jahre:    1J, 3J, 5J, 10J -1J -3J -5J -10J +1J +3J +5J +10J
Nutze für die Darstellung ... ?
Originaldaten oder ...
Mittelwerte Minima Maxima auf...
Stundenbasis Tagesbasis Wochenbasis
Monatsbasis Jahresbasis      Datenbasis: Mittelwerte auf Tagesbasis
Darstellen als:
Statistik (Auto) Statistik J:M      Darstellung:
Zur Graphik,    zurück zur Übersicht aller Sensoren.
 
Tabellarische Datenbersicht: ?
 
Sensor: Nr:Datum:Temp:Feuchte:Taupunkt:
Aussen-T/F 1 16-05-2019 00:00:00 10.83854 C 70.4271 % 5.68 C
2 17-05-2019 00:00:00 11.60069 C 89.4896 % 9.93 C
3 18-05-2019 00:00:00 14.44306 C 85.5035 % 12.04 C
4 19-05-2019 00:00:00 15.85694 C 83.5868 % 13.08 C
5 20-05-2019 00:00:00 13.90347 C 89.8125 % 12.26 C
6 21-05-2019 00:00:00 12.49722 C 93.0868 % 11.41 C
7 22-05-2019 00:00:00 13.38785 C 80.8681 % 10.17 C
8 23-05-2019 00:00:00 15.11875 C 74.1389 % 10.55 C
9 24-05-2019 00:00:00 16.93437 C 70.9271 % 11.63 C
10 25-05-2019 00:00:00 15.60035 C 67.4167 % 9.59 C
11 26-05-2019 00:00:00 15.92014 C 74.4549 % 11.39 C
12 27-05-2019 00:00:00 14.98924 C 90.8889 % 13.51 C
13 28-05-2019 00:00:00 13.95729 C 85.1146 % 11.5 C
14 29-05-2019 00:00:00 14.97951 C 68.2535 % 9.18 C
15 30-05-2019 00:00:00 15.62396 C 78.5069 % 11.9 C
16 31-05-2019 00:00:00 19.22674 C 74.1806 % 14.52 C
17 01-06-2019 00:00:00 19.98924 C 74.3090 % 15.28 C
18 02-06-2019 00:00:00 22.09028 C 70.5521 % 16.49 C
19 03-06-2019 00:00:00 20.85625 C 73.4583 % 15.94 C
20 04-06-2019 00:00:00 21.5059 C 73.6146 % 16.59 C
21 05-06-2019 00:00:00 23.45243 C 67.8507 % 17.17 C
22 06-06-2019 00:00:00 15.94271 C 78.5556 % 12.22 C
23 07-06-2019 00:00:00 15.6809 C 76.3646 % 11.54 C
24 08-06-2019 00:00:00 16.15243 C 62.7743 % 9.06 C
25 09-06-2019 00:00:00 16.23438 C 72.8542 % 11.36 C
Sensor: Nr:Datum:Temp:Feuchte:Taupunkt:
Aussen-T/F 26 10-06-2019 00:00:00 19.2684 C 73.8403 % 14.49 C
27 11-06-2019 00:00:00 17.19063 C 83.4826 % 14.37 C
28 12-06-2019 00:00:00 16.48854 C 82.3194 % 13.47 C
29 13-06-2019 00:00:00 15.92743 C 75.5694 % 11.62 C
30 14-06-2019 00:00:00 17.88507 C 82.6875 % 14.9 C
31 15-06-2019 00:00:00 19.62083 C 79.3646 % 15.95 C
32 16-06-2019 00:00:00 19.34479 C 71.4271 % 14.05 C
33 17-06-2019 00:00:00 18.93646 C 73.1111 % 14.02 C
34 18-06-2019 00:00:00 21.4625 C 72.7188 % 16.36 C
35 19-06-2019 00:00:00 22.17049 C 73.3125 % 17.17 C
36 20-06-2019 00:00:00 19.48229 C 80.3681 % 16.01 C
37 21-06-2019 00:00:00 18.55694 C 68.4306 % 12.64 C
38 22-06-2019 00:00:00 19.16771 C 69.5729 % 13.47 C
39 23-06-2019 00:00:00 21.78854 C 71.5521 % 16.42 C
40 24-06-2019 00:00:00 24.3809 C 68.9965 % 18.32 C
41 25-06-2019 00:00:00 26.30625 C 65.6458 % 19.36 C
42 26-06-2019 00:00:00 26.97257 C 66.5486 % 20.21 C
43 27-06-2019 00:00:00 24.42326 C 58.6910 % 15.81 C
44 28-06-2019 00:00:00 21.63368 C 60.1458 % 13.57 C
45 29-06-2019 00:00:00 24.00937 C 53.3750 % 13.95 C
46 30-06-2019 00:00:00 25.32014 C 62.4688 % 17.63 C
47 01-07-2019 00:00:00 22.68715 C 60.6875 % 14.7 C
48 02-07-2019 00:00:00 19.04306 C 61.0868 % 11.38 C
49 03-07-2019 00:00:00 17.43472 C 61.1146 % 9.87 C
50 04-07-2019 00:00:00 18.23021 C 56.4375 % 9.43 C
Sensor: Nr:Datum:Temp:Feuchte:Taupunkt:
Aussen-T/F 51 05-07-2019 00:00:00 20.73889 C 56.5486 % 11.8 C
52 06-07-2019 00:00:00 21.18681 C 61.5174 % 13.5 C
53 07-07-2019 00:00:00 17.74306 C 68.3819 % 11.85 C
54 08-07-2019 00:00:00 14.44931 C 70.9271 % 9.25 C
55 09-07-2019 00:00:00 15.40868 C 66.0868 % 9.11 C
56 10-07-2019 00:00:00 16.98854 C 57.9271 % 8.66 C
57 11-07-2019 00:00:00 17.76076 C 79.7500 % 14.22 C
58 12-07-2019 00:00:00 17.3375 C 92.0313 % 16.03 C
59 13-07-2019 00:00:00 17.99896 C 83.4549 % 15.15 C
60 14-07-2019 00:00:00 16.92569 C 75.5729 % 12.58 C
61 15-07-2019 00:00:00 16.34757 C 73.9826 % 11.7 C
62 16-07-2019 00:00:00 16.0375 C 75.3507 % 11.68 C
63 17-07-2019 00:00:00 17.21979 C 76.2847 % 13.01 C
64 18-07-2019 00:00:00 19.06944 C 74.1424 % 14.36 C
65 19-07-2019 00:00:00 20.2441 C 77.7257 % 16.23 C
66 20-07-2019 00:00:00 21.61736 C 75.2292 % 17.04 C
67 21-07-2019 00:00:00 21.96076 C 68.7569 % 15.96 C
68 22-07-2019 00:00:00 22.29861 C 66.0139 % 15.64 C
69 23-07-2019 00:00:00 25.05139 C 61.5764 % 17.15 C
70 24-07-2019 00:00:00 27.05069 C 57.6528 % 17.98 C
71 25-07-2019 00:00:00 28.69028 C 53.5729 % 18.33 C
72 26-07-2019 00:00:00 27.21528 C 56.0694 % 17.69 C
73 27-07-2019 00:00:00 23.20069 C 79.9340 % 19.54 C
74 28-07-2019 00:00:00 19.86597 C 90.5938 % 18.28 C
75 29-07-2019 00:00:00 21.16354 C 73.6146 % 16.26 C
Sensor: Nr:Datum:Temp:Feuchte:Taupunkt:
Aussen-T/F 76 30-07-2019 00:00:00 21.86528 C 66.5625 % 15.36 C
77 31-07-2019 00:00:00 21.06111 C 60.7778 % 13.2 C
78 01-08-2019 00:00:00 19.46424 C 65.5833 % 12.85 C
79 02-08-2019 00:00:00 20.52743 C 69.8611 % 14.84 C
80 03-08-2019 00:00:00 20.39271 C 72.5833 % 15.3 C
81 04-08-2019 00:00:00 20.53854 C 68.3681 % 14.51 C
82 05-08-2019 00:00:00 22.56562 C 67.3333 % 16.21 C
83 06-08-2019 00:00:00 19.97604 C 80.0104 % 16.42 C
84 07-08-2019 00:00:00 19.07535 C 87.4479 % 16.94 C
85 08-08-2019 00:00:00 20.39132 C 75.4826 % 15.91 C
86 09-08-2019 00:00:00 19.85833 C 86.8125 % 17.6 C
87 10-08-2019 00:00:00 20.67986 C 77.2986 % 16.56 C
88 11-08-2019 00:00:00 16.99444 C 80.9028 % 13.69 C
89 12-08-2019 00:00:00 16.4441 C 84.5729 % 13.84 C
90 13-08-2019 00:00:00 15.94306 C 78.5799 % 12.23 C
91 14-08-2019 00:00:00 16.52882 C 76.0139 % 12.29 C
92 15-08-2019 00:00:00 17.34306 C 88.4896 % 15.42 C

Maximal/Minimal-Werte vom 16.05.2019 - 15.08.2019

Sensor Min Max Avg
Temp
(Aussen-T/F)
5.5 °C
16-05-2019  02:45:00
40.4 °C
25-07-2019  16:20:00
19.11 °C
Feuchte
(Aussen-T/F)
19 %
06-07-2019  15:50:00
98 %
14-06-2019  09:05:00
73.04 %
Taupunkt
(Aussen-T/F)
5.68 C
16-05-2019  00:00:00
20.21 C
26-06-2019  00:00:00
13.86 C

Die Daten stammen von einer Davis Vantage Pro 2 Wetter-Station und werden unter Linux mit der Software wview2wettercgi und aufbereitet. Alle Angaben erfolgen ohne Gewähr für ihre Vollständigkeit oder Richtigkeit.
Kontakt: Rainer Krienke krienke@uni-koblenz.de . Meine Webseiten an der Uni Koblenz oder privat.
Version: $Revision: 0.78 $